sensor_id;sensor_type;location;lat;lon;timestamp;P1;durP1;ratioP1;P2;durP2;ratioP2
75645;SDS011;64237;52.438;13.240;2022-12-08T00:01:21;6.85;;;2.22;;
75645;SDS011;64237;52.438;13.240;2022-12-08T00:03:48;8.48;;;2.50;;
75645;SDS011;64237;52.438;13.240;2022-12-08T00:06:33;6.28;;;2.38;;
75645;SDS011;64237;52.438;13.240;2022-12-08T00:11:58;6.07;;;2.28;;
75645;SDS011;64237;52.438;13.240;2022-12-08T00:14:35;6.63;;;2.05;;
75645;SDS011;64237;52.438;13.240;2022-12-08T00:17:02;6.25;;;2.38;;
75645;SDS011;64237;52.438;13.240;2022-12-08T00:19:29;5.63;;;2.40;;
75645;SDS011;64237;52.438;13.240;2022-12-08T00:21:55;5.95;;;2.28;;
75645;SDS011;64237;52.438;13.240;2022-12-08T00:24:21;8.00;;;2.70;;
75645;SDS011;64237;52.438;13.240;2022-12-08T00:26:54;6.03;;;2.65;;
75645;SDS011;64237;52.438;13.240;2022-12-08T00:29:19;8.05;;;2.58;;
75645;SDS011;64237;52.438;13.240;2022-12-08T00:31:44;6.90;;;2.42;;
75645;SDS011;64237;52.438;13.240;2022-12-08T00:34:11;10.32;;;2.65;;
75645;SDS011;64237;52.438;13.240;2022-12-08T00:36:37;7.78;;;2.30;;
75645;SDS011;64237;52.438;13.240;2022-12-08T00:39:03;7.32;;;2.38;;
75645;SDS011;64237;52.438;13.240;2022-12-08T00:41:28;8.23;;;2.53;;
75645;SDS011;64237;52.438;13.240;2022-12-08T00:44:13;8.57;;;2.53;;
75645;SDS011;64237;52.438;13.240;2022-12-08T00:46:40;7.35;;;3.00;;
75645;SDS011;64237;52.438;13.240;2022-12-08T00:49:06;7.00;;;2.38;;
75645;SDS011;64237;52.438;13.240;2022-12-08T00:51:32;7.03;;;2.30;;
75645;SDS011;64237;52.438;13.240;2022-12-08T00:54:01;6.32;;;2.63;;
75645;SDS011;64237;52.438;13.240;2022-12-08T00:56:26;7.22;;;2.70;;
75645;SDS011;64237;52.438;13.240;2022-12-08T00:58:52;6.85;;;2.67;;
75645;SDS011;64237;52.438;13.240;2022-12-08T01:01:17;8.23;;;2.70;;
75645;SDS011;64237;52.438;13.240;2022-12-08T01:03:42;6.68;;;2.70;;
75645;SDS011;64237;52.438;13.240;2022-12-08T01:06:08;8.02;;;2.55;;
75645;SDS011;64237;52.438;13.240;2022-12-08T01:08:37;7.25;;;2.28;;
75645;SDS011;64237;52.438;13.240;2022-12-08T01:11:03;8.73;;;2.78;;
75645;SDS011;64237;52.438;13.240;2022-12-08T01:13:33;9.05;;;2.58;;
75645;SDS011;64237;52.438;13.240;2022-12-08T01:15:59;7.38;;;2.33;;
75645;SDS011;64237;52.438;13.240;2022-12-08T01:18:25;9.18;;;2.55;;
75645;SDS011;64237;52.438;13.240;2022-12-08T01:20:51;5.57;;;2.08;;
75645;SDS011;64237;52.438;13.240;2022-12-08T01:23:16;9.15;;;2.75;;
75645;SDS011;64237;52.438;13.240;2022-12-08T01:25:42;8.63;;;2.88;;
75645;SDS011;64237;52.438;13.240;2022-12-08T01:28:07;7.90;;;2.70;;
75645;SDS011;64237;52.438;13.240;2022-12-08T01:30:32;6.40;;;2.58;;
75645;SDS011;64237;52.438;13.240;2022-12-08T01:32:58;7.47;;;2.63;;
75645;SDS011;64237;52.438;13.240;2022-12-08T01:35:24;8.20;;;2.63;;
75645;SDS011;64237;52.438;13.240;2022-12-08T01:37:49;8.43;;;2.88;;
75645;SDS011;64237;52.438;13.240;2022-12-08T01:40:15;9.65;;;2.63;;
75645;SDS011;64237;52.438;13.240;2022-12-08T01:42:40;7.78;;;2.42;;
75645;SDS011;64237;52.438;13.240;2022-12-08T01:45:08;7.47;;;2.78;;
75645;SDS011;64237;52.438;13.240;2022-12-08T01:47:42;7.75;;;2.47;;
75645;SDS011;64237;52.438;13.240;2022-12-08T01:50:14;9.18;;;2.72;;
75645;SDS011;64237;52.438;13.240;2022-12-08T01:53:16;8.27;;;2.70;;
75645;SDS011;64237;52.438;13.240;2022-12-08T01:55:44;6.93;;;2.45;;
75645;SDS011;64237;52.438;13.240;2022-12-08T01:58:27;7.65;;;2.83;;
75645;SDS011;64237;52.438;13.240;2022-12-08T02:00:59;6.53;;;2.65;;
75645;SDS011;64237;52.438;13.240;2022-12-08T02:03:28;8.05;;;2.97;;
75645;SDS011;64237;52.438;13.240;2022-12-08T02:06:01;9.05;;;2.78;;
75645;SDS011;64237;52.438;13.240;2022-12-08T02:08:27;7.70;;;2.53;;
75645;SDS011;64237;52.438;13.240;2022-12-08T02:10:54;7.85;;;2.72;;
75645;SDS011;64237;52.438;13.240;2022-12-08T02:13:20;10.30;;;2.80;;
75645;SDS011;64237;52.438;13.240;2022-12-08T02:24:11;8.57;;;2.88;;
75645;SDS011;64237;52.438;13.240;2022-12-08T02:29:36;7.38;;;2.97;;
75645;SDS011;64237;52.438;13.240;2022-12-08T02:35:22;8.13;;;2.90;;
75645;SDS011;64237;52.438;13.240;2022-12-08T02:38:07;7.10;;;2.70;;
75645;SDS011;64237;52.438;13.240;2022-12-08T02:43:35;6.03;;;2.60;;
75645;SDS011;64237;52.438;13.240;2022-12-08T02:46:07;8.10;;;2.92;;
75645;SDS011;64237;52.438;13.240;2022-12-08T02:48:45;7.40;;;3.05;;
75645;SDS011;64237;52.438;13.240;2022-12-08T02:51:11;7.88;;;2.65;;
75645;SDS011;64237;52.438;13.240;2022-12-08T02:53:36;5.50;;;2.30;;
75645;SDS011;64237;52.438;13.240;2022-12-08T02:56:50;7.32;;;2.63;;
75645;SDS011;64237;52.438;13.240;2022-12-08T02:59:11;7.05;;;2.55;;
75645;SDS011;64237;52.438;13.240;2022-12-08T03:01:55;7.43;;;2.72;;
75645;SDS011;64237;52.438;13.240;2022-12-08T03:04:39;5.53;;;2.17;;
75645;SDS011;64237;52.438;13.240;2022-12-08T03:07:20;6.75;;;2.40;;
75645;SDS011;64237;52.438;13.240;2022-12-08T03:09:57;7.05;;;2.47;;
75645;SDS011;64237;52.438;13.240;2022-12-08T03:12:41;7.13;;;2.40;;
75645;SDS011;64237;52.438;13.240;2022-12-08T03:17:40;6.35;;;2.25;;
75645;SDS011;64237;52.438;13.240;2022-12-08T03:20:10;7.13;;;2.47;;
75645;SDS011;64237;52.438;13.240;2022-12-08T03:22:41;6.10;;;2.03;;
75645;SDS011;64237;52.438;13.240;2022-12-08T03:25:09;7.57;;;2.42;;
75645;SDS011;64237;52.438;13.240;2022-12-08T03:27:38;6.32;;;2.30;;
75645;SDS011;64237;52.438;13.240;2022-12-08T03:30:04;5.93;;;1.88;;
75645;SDS011;64237;52.438;13.240;2022-12-08T03:32:39;5.13;;;2.08;;
75645;SDS011;64237;52.438;13.240;2022-12-08T03:35:14;5.07;;;2.03;;
75645;SDS011;64237;52.438;13.240;2022-12-08T03:37:42;4.88;;;2.08;;
75645;SDS011;64237;52.438;13.240;2022-12-08T03:40:10;6.70;;;2.38;;
75645;SDS011;64237;52.438;13.240;2022-12-08T03:42:38;6.43;;;2.30;;
75645;SDS011;64237;52.438;13.240;2022-12-08T03:45:04;6.40;;;2.25;;
75645;SDS011;64237;52.438;13.240;2022-12-08T03:47:30;7.53;;;2.85;;
75645;SDS011;64237;52.438;13.240;2022-12-08T03:49:55;7.53;;;2.75;;
75645;SDS011;64237;52.438;13.240;2022-12-08T03:52:21;7.47;;;2.70;;
75645;SDS011;64237;52.438;13.240;2022-12-08T03:54:47;7.28;;;2.83;;
75645;SDS011;64237;52.438;13.240;2022-12-08T03:57:13;8.85;;;3.10;;
75645;SDS011;64237;52.438;13.240;2022-12-08T03:59:38;7.82;;;3.05;;
75645;SDS011;64237;52.438;13.240;2022-12-08T04:02:04;7.40;;;3.10;;
75645;SDS011;64237;52.438;13.240;2022-12-08T04:04:29;7.80;;;3.08;;
75645;SDS011;64237;52.438;13.240;2022-12-08T04:06:55;9.90;;;3.70;;
75645;SDS011;64237;52.438;13.240;2022-12-08T04:09:22;9.27;;;3.05;;
75645;SDS011;64237;52.438;13.240;2022-12-08T04:11:48;11.50;;;3.60;;
75645;SDS011;64237;52.438;13.240;2022-12-08T04:14:14;9.25;;;3.60;;
75645;SDS011;64237;52.438;13.240;2022-12-08T04:16:40;8.90;;;3.58;;
75645;SDS011;64237;52.438;13.240;2022-12-08T04:19:06;9.15;;;3.47;;
75645;SDS011;64237;52.438;13.240;2022-12-08T04:21:31;8.63;;;3.53;;
75645;SDS011;64237;52.438;13.240;2022-12-08T04:23:58;9.15;;;4.00;;
75645;SDS011;64237;52.438;13.240;2022-12-08T04:26:24;11.00;;;4.00;;
75645;SDS011;64237;52.438;13.240;2022-12-08T04:28:50;9.85;;;4.10;;
75645;SDS011;64237;52.438;13.240;2022-12-08T04:31:15;11.13;;;4.30;;
75645;SDS011;64237;52.438;13.240;2022-12-08T04:33:41;9.88;;;3.33;;
75645;SDS011;64237;52.438;13.240;2022-12-08T04:36:07;11.57;;;4.55;;
75645;SDS011;64237;52.438;13.240;2022-12-08T04:38:33;10.40;;;4.65;;
75645;SDS011;64237;52.438;13.240;2022-12-08T04:40:59;10.48;;;3.83;;
75645;SDS011;64237;52.438;13.240;2022-12-08T04:43:25;10.95;;;4.40;;
75645;SDS011;64237;52.438;13.240;2022-12-08T04:45:51;10.35;;;4.30;;
75645;SDS011;64237;52.438;13.240;2022-12-08T04:48:16;11.55;;;4.25;;
75645;SDS011;64237;52.438;13.240;2022-12-08T04:50:42;11.15;;;4.22;;
75645;SDS011;64237;52.438;13.240;2022-12-08T04:53:09;10.32;;;4.00;;
75645;SDS011;64237;52.438;13.240;2022-12-08T04:55:37;14.55;;;5.43;;
75645;SDS011;64237;52.438;13.240;2022-12-08T04:58:05;12.40;;;4.15;;
75645;SDS011;64237;52.438;13.240;2022-12-08T05:00:32;10.02;;;3.90;;
75645;SDS011;64237;52.438;13.240;2022-12-08T05:02:58;11.70;;;4.50;;
75645;SDS011;64237;52.438;13.240;2022-12-08T05:05:23;10.20;;;4.55;;
75645;SDS011;64237;52.438;13.240;2022-12-08T05:07:48;12.48;;;4.40;;
75645;SDS011;64237;52.438;13.240;2022-12-08T05:10:14;14.18;;;4.72;;
75645;SDS011;64237;52.438;13.240;2022-12-08T05:12:39;15.00;;;5.53;;
75645;SDS011;64237;52.438;13.240;2022-12-08T05:15:05;13.85;;;4.47;;
75645;SDS011;64237;52.438;13.240;2022-12-08T05:17:30;13.80;;;4.72;;
75645;SDS011;64237;52.438;13.240;2022-12-08T05:19:56;11.27;;;4.80;;
75645;SDS011;64237;52.438;13.240;2022-12-08T05:22:21;13.23;;;5.10;;
75645;SDS011;64237;52.438;13.240;2022-12-08T05:24:46;12.10;;;4.53;;
75645;SDS011;64237;52.438;13.240;2022-12-08T05:27:12;13.20;;;5.25;;
75645;SDS011;64237;52.438;13.240;2022-12-08T05:29:37;15.93;;;5.47;;
75645;SDS011;64237;52.438;13.240;2022-12-08T05:32:03;13.43;;;4.40;;
75645;SDS011;64237;52.438;13.240;2022-12-08T05:34:28;11.85;;;4.78;;
75645;SDS011;64237;52.438;13.240;2022-12-08T05:36:54;15.25;;;5.30;;
75645;SDS011;64237;52.438;13.240;2022-12-08T05:39:19;12.00;;;4.65;;
75645;SDS011;64237;52.438;13.240;2022-12-08T05:41:44;13.25;;;5.75;;
75645;SDS011;64237;52.438;13.240;2022-12-08T05:44:09;13.60;;;5.22;;
75645;SDS011;64237;52.438;13.240;2022-12-08T05:46:35;14.20;;;5.53;;
75645;SDS011;64237;52.438;13.240;2022-12-08T05:49:01;13.60;;;5.70;;
75645;SDS011;64237;52.438;13.240;2022-12-08T05:51:27;12.68;;;5.93;;
75645;SDS011;64237;52.438;13.240;2022-12-08T05:53:52;15.38;;;4.97;;
75645;SDS011;64237;52.438;13.240;2022-12-08T05:56:19;12.77;;;5.47;;
75645;SDS011;64237;52.438;13.240;2022-12-08T05:58:45;12.43;;;5.15;;
75645;SDS011;64237;52.438;13.240;2022-12-08T06:01:21;14.25;;;5.95;;
75645;SDS011;64237;52.438;13.240;2022-12-08T06:03:51;13.63;;;5.20;;
75645;SDS011;64237;52.438;13.240;2022-12-08T06:06:18;16.63;;;5.68;;
75645;SDS011;64237;52.438;13.240;2022-12-08T06:08:43;13.07;;;5.65;;
75645;SDS011;64237;52.438;13.240;2022-12-08T06:11:09;11.73;;;5.20;;
75645;SDS011;64237;52.438;13.240;2022-12-08T06:13:41;13.50;;;5.65;;
75645;SDS011;64237;52.438;13.240;2022-12-08T06:16:06;13.75;;;5.57;;
75645;SDS011;64237;52.438;13.240;2022-12-08T06:18:31;13.55;;;4.93;;
75645;SDS011;64237;52.438;13.240;2022-12-08T06:21:01;13.30;;;5.30;;
75645;SDS011;64237;52.438;13.240;2022-12-08T06:23:28;12.52;;;5.00;;
75645;SDS011;64237;52.438;13.240;2022-12-08T06:25:54;16.08;;;5.00;;
75645;SDS011;64237;52.438;13.240;2022-12-08T06:28:24;13.10;;;4.68;;
75645;SDS011;64237;52.438;13.240;2022-12-08T06:30:49;15.95;;;5.90;;
75645;SDS011;64237;52.438;13.240;2022-12-08T06:33:14;11.32;;;4.97;;
75645;SDS011;64237;52.438;13.240;2022-12-08T06:35:40;14.03;;;5.30;;
75645;SDS011;64237;52.438;13.240;2022-12-08T06:38:05;12.95;;;5.25;;
75645;SDS011;64237;52.438;13.240;2022-12-08T06:40:30;11.25;;;4.55;;
75645;SDS011;64237;52.438;13.240;2022-12-08T06:42:56;12.73;;;5.05;;
75645;SDS011;64237;52.438;13.240;2022-12-08T06:45:21;12.75;;;5.30;;
75645;SDS011;64237;52.438;13.240;2022-12-08T06:47:47;20.38;;;6.00;;
75645;SDS011;64237;52.438;13.240;2022-12-08T06:50:12;13.07;;;5.43;;
75645;SDS011;64237;52.438;13.240;2022-12-08T06:52:38;15.73;;;5.82;;
75645;SDS011;64237;52.438;13.240;2022-12-08T06:55:05;15.88;;;5.15;;
75645;SDS011;64237;52.438;13.240;2022-12-08T06:57:31;13.27;;;5.28;;
75645;SDS011;64237;52.438;13.240;2022-12-08T06:59:56;15.98;;;6.07;;
75645;SDS011;64237;52.438;13.240;2022-12-08T07:02:22;13.48;;;5.43;;
75645;SDS011;64237;52.438;13.240;2022-12-08T07:04:47;12.38;;;4.97;;
75645;SDS011;64237;52.438;13.240;2022-12-08T07:07:13;16.02;;;5.22;;
75645;SDS011;64237;52.438;13.240;2022-12-08T07:09:38;13.13;;;5.03;;
75645;SDS011;64237;52.438;13.240;2022-12-08T07:12:03;16.25;;;5.68;;
75645;SDS011;64237;52.438;13.240;2022-12-08T07:14:29;17.63;;;6.40;;
75645;SDS011;64237;52.438;13.240;2022-12-08T07:16:55;10.82;;;4.55;;
75645;SDS011;64237;52.438;13.240;2022-12-08T07:19:20;12.32;;;4.78;;
75645;SDS011;64237;52.438;13.240;2022-12-08T07:21:45;14.13;;;5.30;;
75645;SDS011;64237;52.438;13.240;2022-12-08T07:24:11;14.20;;;5.15;;
75645;SDS011;64237;52.438;13.240;2022-12-08T07:26:37;14.63;;;5.43;;
75645;SDS011;64237;52.438;13.240;2022-12-08T07:29:03;14.15;;;5.25;;
75645;SDS011;64237;52.438;13.240;2022-12-08T07:31:29;13.95;;;5.50;;
75645;SDS011;64237;52.438;13.240;2022-12-08T07:33:55;14.88;;;5.45;;
75645;SDS011;64237;52.438;13.240;2022-12-08T07:36:21;18.45;;;5.47;;
75645;SDS011;64237;52.438;13.240;2022-12-08T07:38:47;14.07;;;5.32;;
75645;SDS011;64237;52.438;13.240;2022-12-08T07:41:16;14.27;;;5.20;;
75645;SDS011;64237;52.438;13.240;2022-12-08T07:43:43;15.07;;;5.63;;
75645;SDS011;64237;52.438;13.240;2022-12-08T07:46:15;12.02;;;5.40;;
75645;SDS011;64237;52.438;13.240;2022-12-08T07:48:42;14.02;;;5.32;;
75645;SDS011;64237;52.438;13.240;2022-12-08T07:51:09;14.63;;;5.78;;
75645;SDS011;64237;52.438;13.240;2022-12-08T07:53:37;13.32;;;5.38;;
75645;SDS011;64237;52.438;13.240;2022-12-08T07:56:07;12.48;;;4.93;;
75645;SDS011;64237;52.438;13.240;2022-12-08T07:58:33;13.57;;;5.20;;
75645;SDS011;64237;52.438;13.240;2022-12-08T08:01:00;13.73;;;4.75;;
75645;SDS011;64237;52.438;13.240;2022-12-08T08:03:26;13.07;;;5.28;;
75645;SDS011;64237;52.438;13.240;2022-12-08T08:05:51;17.55;;;5.78;;
75645;SDS011;64237;52.438;13.240;2022-12-08T08:08:17;12.57;;;4.82;;
75645;SDS011;64237;52.438;13.240;2022-12-08T08:10:42;11.05;;;5.05;;
75645;SDS011;64237;52.438;13.240;2022-12-08T08:13:11;12.98;;;5.32;;
75645;SDS011;64237;52.438;13.240;2022-12-08T08:15:36;14.68;;;5.45;;
75645;SDS011;64237;52.438;13.240;2022-12-08T08:18:02;13.93;;;5.60;;
75645;SDS011;64237;52.438;13.240;2022-12-08T08:20:28;12.32;;;4.75;;
75645;SDS011;64237;52.438;13.240;2022-12-08T08:22:53;14.27;;;5.93;;
75645;SDS011;64237;52.438;13.240;2022-12-08T08:25:19;12.95;;;4.78;;
75645;SDS011;64237;52.438;13.240;2022-12-08T08:27:49;12.40;;;5.53;;
75645;SDS011;64237;52.438;13.240;2022-12-08T08:30:15;17.27;;;6.03;;
75645;SDS011;64237;52.438;13.240;2022-12-08T08:32:40;13.82;;;5.55;;
75645;SDS011;64237;52.438;13.240;2022-12-08T08:35:06;15.40;;;5.65;;
75645;SDS011;64237;52.438;13.240;2022-12-08T08:37:32;12.73;;;5.47;;
75645;SDS011;64237;52.438;13.240;2022-12-08T08:39:58;13.57;;;5.20;;
75645;SDS011;64237;52.438;13.240;2022-12-08T08:42:24;13.95;;;5.68;;
75645;SDS011;64237;52.438;13.240;2022-12-08T08:44:49;13.00;;;5.47;;
75645;SDS011;64237;52.438;13.240;2022-12-08T08:47:16;12.00;;;5.47;;
75645;SDS011;64237;52.438;13.240;2022-12-08T08:49:42;15.35;;;6.05;;
75645;SDS011;64237;52.438;13.240;2022-12-08T08:52:08;15.75;;;5.38;;
75645;SDS011;64237;52.438;13.240;2022-12-08T08:54:34;14.68;;;5.50;;
75645;SDS011;64237;52.438;13.240;2022-12-08T08:56:59;13.52;;;5.65;;
75645;SDS011;64237;52.438;13.240;2022-12-08T08:59:25;13.52;;;6.03;;
75645;SDS011;64237;52.438;13.240;2022-12-08T09:01:51;13.70;;;4.65;;
75645;SDS011;64237;52.438;13.240;2022-12-08T09:04:18;23.50;;;6.88;;
75645;SDS011;64237;52.438;13.240;2022-12-08T09:06:44;14.10;;;5.38;;
75645;SDS011;64237;52.438;13.240;2022-12-08T09:09:10;11.82;;;5.00;;
75645;SDS011;64237;52.438;13.240;2022-12-08T09:11:36;14.68;;;5.75;;
75645;SDS011;64237;52.438;13.240;2022-12-08T09:14:02;14.23;;;5.75;;
75645;SDS011;64237;52.438;13.240;2022-12-08T09:16:27;14.35;;;5.95;;
75645;SDS011;64237;52.438;13.240;2022-12-08T09:18:52;13.95;;;5.53;;
75645;SDS011;64237;52.438;13.240;2022-12-08T09:21:19;13.45;;;5.45;;
75645;SDS011;64237;52.438;13.240;2022-12-08T09:23:48;14.02;;;5.28;;
75645;SDS011;64237;52.438;13.240;2022-12-08T09:26:14;13.68;;;5.70;;
75645;SDS011;64237;52.438;13.240;2022-12-08T09:28:40;14.13;;;5.57;;
75645;SDS011;64237;52.438;13.240;2022-12-08T09:31:11;15.02;;;5.65;;
75645;SDS011;64237;52.438;13.240;2022-12-08T09:33:38;13.30;;;6.03;;
75645;SDS011;64237;52.438;13.240;2022-12-08T09:36:03;14.18;;;5.35;;
75645;SDS011;64237;52.438;13.240;2022-12-08T09:38:29;12.38;;;5.30;;
75645;SDS011;64237;52.438;13.240;2022-12-08T09:40:56;16.95;;;5.60;;
75645;SDS011;64237;52.438;13.240;2022-12-08T09:43:24;13.10;;;5.93;;
75645;SDS011;64237;52.438;13.240;2022-12-08T09:45:53;12.43;;;5.85;;
75645;SDS011;64237;52.438;13.240;2022-12-08T09:48:22;14.65;;;5.57;;
75645;SDS011;64237;52.438;13.240;2022-12-08T09:50:53;14.65;;;5.53;;
75645;SDS011;64237;52.438;13.240;2022-12-08T09:53:22;13.90;;;6.00;;
75645;SDS011;64237;52.438;13.240;2022-12-08T09:55:51;13.63;;;5.60;;
75645;SDS011;64237;52.438;13.240;2022-12-08T09:58:23;13.40;;;5.70;;
75645;SDS011;64237;52.438;13.240;2022-12-08T10:01:10;14.90;;;5.50;;
75645;SDS011;64237;52.438;13.240;2022-12-08T10:03:36;12.25;;;4.90;;
75645;SDS011;64237;52.438;13.240;2022-12-08T10:16:41;14.75;;;6.10;;
75645;SDS011;64237;52.438;13.240;2022-12-08T10:21:45;12.45;;;5.93;;
75645;SDS011;64237;52.438;13.240;2022-12-08T10:27:09;13.15;;;5.05;;
75645;SDS011;64237;52.438;13.240;2022-12-08T10:29:38;15.07;;;4.78;;
75645;SDS011;64237;52.438;13.240;2022-12-08T10:32:09;16.52;;;5.63;;
75645;SDS011;64237;52.438;13.240;2022-12-08T10:34:59;11.93;;;5.28;;
75645;SDS011;64237;52.438;13.240;2022-12-08T10:37:26;13.95;;;4.78;;
75645;SDS011;64237;52.438;13.240;2022-12-08T10:40:25;14.50;;;4.82;;
75645;SDS011;64237;52.438;13.240;2022-12-08T10:42:47;13.05;;;5.35;;
75645;SDS011;64237;52.438;13.240;2022-12-08T10:45:26;10.98;;;4.28;;
75645;SDS011;64237;52.438;13.240;2022-12-08T10:47:56;11.65;;;4.90;;
75645;SDS011;64237;52.438;13.240;2022-12-08T10:53:13;10.05;;;4.63;;
75645;SDS011;64237;52.438;13.240;2022-12-08T10:55:48;12.48;;;5.57;;
75645;SDS011;64237;52.438;13.240;2022-12-08T11:01:00;12.52;;;4.88;;
75645;SDS011;64237;52.438;13.240;2022-12-08T11:06:54;13.52;;;5.07;;
75645;SDS011;64237;52.438;13.240;2022-12-08T11:11:37;11.52;;;4.25;;
75645;SDS011;64237;52.438;13.240;2022-12-08T11:14:12;12.80;;;4.80;;
75645;SDS011;64237;52.438;13.240;2022-12-08T11:16:43;11.90;;;4.88;;
75645;SDS011;64237;52.438;13.240;2022-12-08T11:19:13;10.93;;;5.20;;
75645;SDS011;64237;52.438;13.240;2022-12-08T11:21:41;13.38;;;4.97;;
75645;SDS011;64237;52.438;13.240;2022-12-08T11:26:40;12.70;;;4.40;;
75645;SDS011;64237;52.438;13.240;2022-12-08T11:29:12;10.45;;;4.65;;
75645;SDS011;64237;52.438;13.240;2022-12-08T11:31:42;12.73;;;4.72;;
75645;SDS011;64237;52.438;13.240;2022-12-08T11:34:27;10.25;;;4.47;;
75645;SDS011;64237;52.438;13.240;2022-12-08T11:36:57;14.80;;;5.28;;
75645;SDS011;64237;52.438;13.240;2022-12-08T11:39:24;12.20;;;5.30;;
75645;SDS011;64237;52.438;13.240;2022-12-08T11:41:53;11.35;;;5.03;;
75645;SDS011;64237;52.438;13.240;2022-12-08T11:44:32;13.35;;;5.22;;
75645;SDS011;64237;52.438;13.240;2022-12-08T11:47:12;14.05;;;5.07;;
75645;SDS011;64237;52.438;13.240;2022-12-08T11:49:42;11.00;;;4.72;;
75645;SDS011;64237;52.438;13.240;2022-12-08T11:52:29;11.73;;;4.25;;
75645;SDS011;64237;52.438;13.240;2022-12-08T11:57:44;13.60;;;5.07;;
75645;SDS011;64237;52.438;13.240;2022-12-08T12:00:11;11.50;;;4.95;;
75645;SDS011;64237;52.438;13.240;2022-12-08T12:02:39;11.93;;;4.65;;
75645;SDS011;64237;52.438;13.240;2022-12-08T12:17:04;12.02;;;5.28;;
75645;SDS011;64237;52.438;13.240;2022-12-08T12:19:34;11.93;;;4.78;;
75645;SDS011;64237;52.438;13.240;2022-12-08T12:22:21;9.82;;;4.30;;
75645;SDS011;64237;52.438;13.240;2022-12-08T12:24:49;11.40;;;5.10;;
75645;SDS011;64237;52.438;13.240;2022-12-08T12:27:59;14.20;;;5.70;;
75645;SDS011;64237;52.438;13.240;2022-12-08T12:30:26;12.02;;;4.82;;
75645;SDS011;64237;52.438;13.240;2022-12-08T12:32:57;13.10;;;5.35;;
75645;SDS011;64237;52.438;13.240;2022-12-08T12:35:35;13.10;;;4.85;;
75645;SDS011;64237;52.438;13.240;2022-12-08T12:38:19;13.90;;;5.35;;
75645;SDS011;64237;52.438;13.240;2022-12-08T12:41:08;22.98;;;5.80;;
75645;SDS011;64237;52.438;13.240;2022-12-08T12:43:36;10.57;;;4.47;;
75645;SDS011;64237;52.438;13.240;2022-12-08T12:46:51;9.25;;;3.92;;
75645;SDS011;64237;52.438;13.240;2022-12-08T12:48:51;10.95;;;5.10;;
75645;SDS011;64237;52.438;13.240;2022-12-08T12:54:20;10.75;;;4.90;;
75645;SDS011;64237;52.438;13.240;2022-12-08T12:56:52;12.77;;;5.55;;
75645;SDS011;64237;52.438;13.240;2022-12-08T12:59:20;13.65;;;5.28;;
75645;SDS011;64237;52.438;13.240;2022-12-08T13:01:59;11.70;;;4.93;;
75645;SDS011;64237;52.438;13.240;2022-12-08T13:04:27;10.40;;;4.65;;
75645;SDS011;64237;52.438;13.240;2022-12-08T13:06:59;12.57;;;5.38;;
75645;SDS011;64237;52.438;13.240;2022-12-08T13:09:33;11.05;;;5.13;;
75645;SDS011;64237;52.438;13.240;2022-12-08T13:12:07;11.52;;;5.13;;
75645;SDS011;64237;52.438;13.240;2022-12-08T13:14:36;11.88;;;4.95;;
75645;SDS011;64237;52.438;13.240;2022-12-08T13:17:10;13.50;;;5.70;;
75645;SDS011;64237;52.438;13.240;2022-12-08T13:19:40;16.30;;;5.80;;
75645;SDS011;64237;52.438;13.240;2022-12-08T13:30:52;14.02;;;6.18;;
75645;SDS011;64237;52.438;13.240;2022-12-08T13:36:23;15.80;;;5.60;;
75645;SDS011;64237;52.438;13.240;2022-12-08T13:38:54;12.40;;;5.70;;
75645;SDS011;64237;52.438;13.240;2022-12-08T13:41:31;14.60;;;5.57;;
75645;SDS011;64237;52.438;13.240;2022-12-08T13:44:20;13.80;;;6.25;;
75645;SDS011;64237;52.438;13.240;2022-12-08T13:46:51;16.60;;;5.95;;
75645;SDS011;64237;52.438;13.240;2022-12-08T13:49:23;13.15;;;6.13;;
75645;SDS011;64237;52.438;13.240;2022-12-08T13:51:54;14.55;;;5.97;;
75645;SDS011;64237;52.438;13.240;2022-12-08T13:56:51;13.48;;;5.65;;
75645;SDS011;64237;52.438;13.240;2022-12-08T14:01:44;16.77;;;6.03;;
75645;SDS011;64237;52.438;13.240;2022-12-08T14:04:16;15.77;;;6.30;;
75645;SDS011;64237;52.438;13.240;2022-12-08T14:06:45;12.38;;;4.88;;
75645;SDS011;64237;52.438;13.240;2022-12-08T14:09:19;8.75;;;4.07;;
75645;SDS011;64237;52.438;13.240;2022-12-08T14:11:51;12.82;;;5.13;;
75645;SDS011;64237;52.438;13.240;2022-12-08T14:14:30;12.70;;;5.30;;
75645;SDS011;64237;52.438;13.240;2022-12-08T14:17:02;11.52;;;4.60;;
75645;SDS011;64237;52.438;13.240;2022-12-08T14:19:31;9.48;;;3.85;;
75645;SDS011;64237;52.438;13.240;2022-12-08T14:22:00;14.43;;;4.93;;
75645;SDS011;64237;52.438;13.240;2022-12-08T14:24:32;11.68;;;4.47;;
75645;SDS011;64237;52.438;13.240;2022-12-08T14:26:59;11.50;;;4.63;;
75645;SDS011;64237;52.438;13.240;2022-12-08T14:29:47;8.70;;;3.78;;
75645;SDS011;64237;52.438;13.240;2022-12-08T14:37:32;9.45;;;3.90;;
75645;SDS011;64237;52.438;13.240;2022-12-08T14:40:02;10.60;;;4.45;;
75645;SDS011;64237;52.438;13.240;2022-12-08T14:42:42;9.60;;;3.72;;
75645;SDS011;64237;52.438;13.240;2022-12-08T14:45:10;10.50;;;4.28;;
75645;SDS011;64237;52.438;13.240;2022-12-08T14:47:38;8.82;;;3.60;;
75645;SDS011;64237;52.438;13.240;2022-12-08T14:50:34;10.90;;;4.35;;
75645;SDS011;64237;52.438;13.240;2022-12-08T14:53:10;10.00;;;4.22;;
75645;SDS011;64237;52.438;13.240;2022-12-08T14:55:38;11.40;;;4.43;;
75645;SDS011;64237;52.438;13.240;2022-12-08T14:58:03;10.05;;;4.28;;
75645;SDS011;64237;52.438;13.240;2022-12-08T15:00:29;10.75;;;4.22;;
75645;SDS011;64237;52.438;13.240;2022-12-08T15:02:55;9.93;;;4.25;;
75645;SDS011;64237;52.438;13.240;2022-12-08T15:05:31;9.40;;;4.13;;
75645;SDS011;64237;52.438;13.240;2022-12-08T15:08:00;12.63;;;4.32;;
75645;SDS011;64237;52.438;13.240;2022-12-08T15:10:34;11.32;;;4.15;;
75645;SDS011;64237;52.438;13.240;2022-12-08T15:15:50;10.70;;;4.60;;
75645;SDS011;64237;52.438;13.240;2022-12-08T15:18:37;10.23;;;3.78;;
75645;SDS011;64237;52.438;13.240;2022-12-08T15:21:05;9.38;;;3.97;;
75645;SDS011;64237;52.438;13.240;2022-12-08T15:23:43;12.95;;;4.28;;
75645;SDS011;64237;52.438;13.240;2022-12-08T15:26:23;11.30;;;4.45;;
75645;SDS011;64237;52.438;13.240;2022-12-08T15:28:50;11.10;;;4.40;;
75645;SDS011;64237;52.438;13.240;2022-12-08T15:31:18;10.48;;;4.53;;
75645;SDS011;64237;52.438;13.240;2022-12-08T15:33:44;11.23;;;4.13;;
75645;SDS011;64237;52.438;13.240;2022-12-08T15:36:10;12.98;;;4.93;;
75645;SDS011;64237;52.438;13.240;2022-12-08T15:38:36;11.75;;;4.60;;
75645;SDS011;64237;52.438;13.240;2022-12-08T15:41:02;10.35;;;4.07;;
75645;SDS011;64237;52.438;13.240;2022-12-08T15:43:28;11.77;;;4.72;;
75645;SDS011;64237;52.438;13.240;2022-12-08T15:45:55;8.32;;;2.85;;
75645;SDS011;64237;52.438;13.240;2022-12-08T15:48:22;10.18;;;4.68;;
75645;SDS011;64237;52.438;13.240;2022-12-08T15:50:50;10.38;;;4.05;;
75645;SDS011;64237;52.438;13.240;2022-12-08T15:53:15;7.75;;;3.60;;
75645;SDS011;64237;52.438;13.240;2022-12-08T15:55:41;9.93;;;4.50;;
75645;SDS011;64237;52.438;13.240;2022-12-08T15:58:09;9.70;;;4.63;;
75645;SDS011;64237;52.438;13.240;2022-12-08T16:00:42;8.32;;;3.72;;
75645;SDS011;64237;52.438;13.240;2022-12-08T16:03:12;8.15;;;3.50;;
75645;SDS011;64237;52.438;13.240;2022-12-08T16:08:11;10.07;;;4.05;;
75645;SDS011;64237;52.438;13.240;2022-12-08T16:13:08;9.85;;;3.80;;
75645;SDS011;64237;52.438;13.240;2022-12-08T16:15:57;9.90;;;4.00;;
75645;SDS011;64237;52.438;13.240;2022-12-08T16:18:25;9.23;;;4.10;;